createdAt,value
2023-01-22T00:01:39.894Z,22.88
2023-01-22T00:04:09.407Z,23.83
2023-01-22T00:06:37.960Z,23.98
2023-01-22T00:09:08.992Z,22.15
2023-01-22T00:11:37.373Z,23.45
2023-01-22T00:14:05.933Z,23.70
2023-01-22T00:16:35.760Z,19.58
2023-01-22T00:19:04.224Z,21.98
2023-01-22T00:21:32.548Z,19.00
2023-01-22T00:24:00.974Z,21.20
2023-01-22T00:26:29.722Z,22.75
2023-01-22T00:28:58.327Z,18.20
2023-01-22T00:31:26.889Z,19.35
2023-01-22T00:33:58.853Z,15.32
2023-01-22T00:36:27.251Z,15.18
2023-01-22T00:38:55.715Z,16.67
2023-01-22T00:41:24.084Z,13.57
2023-01-22T00:43:53.068Z,16.70
2023-01-22T00:46:21.846Z,19.05
2023-01-22T00:48:51.031Z,21.05
2023-01-22T00:51:21.140Z,20.23
2023-01-22T00:53:49.569Z,22.38
2023-01-22T00:56:18.229Z,21.83
2023-01-22T00:58:46.780Z,20.63
2023-01-22T01:01:16.225Z,17.73
2023-01-22T01:03:44.520Z,19.92
2023-01-22T01:06:16.366Z,21.45
2023-01-22T01:08:46.555Z,19.35
2023-01-22T01:11:19.542Z,16.48
2023-01-22T01:13:47.901Z,16.15
2023-01-22T01:16:19.368Z,21.73
2023-01-22T01:18:51.160Z,19.60
2023-01-22T01:21:20.398Z,19.50
2023-01-22T01:23:51.569Z,18.85
2023-01-22T01:26:20.068Z,17.42
2023-01-22T01:28:49.234Z,20.05
2023-01-22T01:31:18.252Z,17.38
2023-01-22T01:33:46.999Z,19.20
2023-01-22T01:36:21.260Z,21.75
2023-01-22T01:38:57.297Z,18.80
2023-01-22T01:41:27.394Z,21.50
2023-01-22T01:44:13.677Z,20.65
2023-01-22T01:46:46.925Z,20.20
2023-01-22T01:49:29.448Z,17.13
2023-01-22T01:52:00.946Z,18.63
2023-01-22T01:54:32.000Z,19.67
2023-01-22T01:57:05.325Z,20.45
2023-01-22T01:59:35.745Z,18.88
2023-01-22T02:02:05.085Z,20.63
2023-01-22T02:04:33.976Z,20.48
2023-01-22T02:07:02.746Z,19.30
2023-01-22T02:09:35.303Z,17.10
2023-01-22T02:12:04.512Z,15.15
2023-01-22T02:14:36.184Z,18.00
2023-01-22T02:17:11.321Z,20.70
2023-01-22T02:19:39.769Z,21.23
2023-01-22T02:22:15.019Z,21.67
2023-01-22T02:24:43.434Z,16.38
2023-01-22T02:27:12.597Z,15.63
2023-01-22T02:29:41.423Z,15.88
2023-01-22T02:32:14.250Z,16.15
2023-01-22T02:34:42.909Z,15.38
2023-01-22T02:37:13.131Z,15.27
2023-01-22T02:39:41.512Z,14.00
2023-01-22T02:42:10.505Z,14.60
2023-01-22T02:44:43.140Z,18.13
2023-01-22T02:47:11.465Z,16.23
2023-01-22T02:49:39.827Z,17.95
2023-01-22T02:52:08.193Z,14.55
2023-01-22T02:54:38.357Z,16.33
2023-01-22T02:57:06.803Z,16.75
2023-01-22T02:59:35.668Z,14.68
2023-01-22T03:02:04.043Z,14.63
2023-01-22T03:04:32.693Z,16.63
2023-01-22T03:07:01.248Z,17.25
2023-01-22T03:09:30.309Z,19.05
2023-01-22T03:12:03.056Z,17.85
2023-01-22T03:14:52.344Z,17.42
2023-01-22T03:17:38.498Z,19.40
2023-01-22T03:20:25.824Z,18.20
2023-01-22T03:23:00.958Z,18.05
2023-01-22T03:25:29.292Z,16.80
2023-01-22T03:28:16.431Z,17.08
2023-01-22T03:30:50.122Z,18.25
2023-01-22T03:33:18.504Z,16.67
2023-01-22T03:35:47.753Z,16.40
2023-01-22T03:38:19.964Z,17.95
2023-01-22T03:40:48.274Z,17.75
2023-01-22T03:43:18.046Z,17.55
2023-01-22T03:45:46.690Z,13.80
2023-01-22T03:48:17.341Z,15.35
2023-01-22T03:50:45.739Z,16.58
2023-01-22T03:53:14.076Z,17.15
2023-01-22T03:55:42.453Z,17.25
2023-01-22T03:58:15.741Z,18.92
2023-01-22T04:00:45.604Z,17.67
2023-01-22T04:03:13.984Z,17.50
2023-01-22T04:05:42.591Z,16.05
2023-01-22T04:08:10.978Z,15.63
2023-01-22T04:10:43.928Z,14.23
2023-01-22T04:13:12.505Z,12.43
2023-01-22T04:15:46.169Z,17.30
2023-01-22T04:18:36.685Z,17.88
2023-01-22T04:21:19.237Z,17.40
2023-01-22T04:23:56.979Z,15.00
2023-01-22T04:26:25.512Z,16.00
2023-01-22T04:28:56.059Z,14.30
2023-01-22T04:31:28.949Z,15.10
2023-01-22T04:34:10.752Z,15.40
2023-01-22T04:36:50.274Z,17.05
2023-01-22T04:39:19.149Z,16.70
2023-01-22T04:41:48.714Z,15.55
2023-01-22T04:44:21.502Z,17.27
2023-01-22T04:46:54.856Z,18.00
2023-01-22T04:49:26.062Z,13.40
2023-01-22T04:51:56.313Z,14.73
2023-01-22T04:54:25.403Z,16.40
2023-01-22T04:56:54.578Z,17.20
2023-01-22T04:59:26.017Z,14.82
2023-01-22T05:01:55.727Z,17.90
2023-01-22T05:04:29.635Z,17.63
2023-01-22T05:07:00.193Z,15.52
2023-01-22T05:09:28.610Z,16.25
2023-01-22T05:12:00.689Z,16.13
2023-01-22T05:14:33.715Z,15.07
2023-01-22T05:17:04.817Z,17.60
2023-01-22T05:19:33.166Z,16.77
2023-01-22T05:22:01.557Z,16.50
2023-01-22T05:24:32.753Z,17.05
2023-01-22T05:27:03.098Z,18.65
2023-01-22T05:29:37.655Z,16.52
2023-01-22T05:32:16.697Z,13.90
2023-01-22T05:34:54.182Z,14.57
2023-01-22T05:37:22.734Z,17.98
2023-01-22T05:39:52.140Z,17.60
2023-01-22T05:42:20.988Z,19.23
2023-01-22T05:44:51.342Z,17.85
2023-01-22T05:47:24.327Z,17.10
2023-01-22T05:50:07.201Z,19.55
2023-01-22T05:52:35.598Z,19.10
2023-01-22T05:55:04.122Z,17.98
2023-01-22T05:57:38.927Z,18.83
2023-01-22T06:00:08.978Z,16.35
2023-01-22T06:02:46.201Z,19.65
2023-01-22T06:05:16.377Z,20.33
2023-01-22T06:07:48.858Z,17.65
2023-01-22T06:10:18.197Z,17.63
2023-01-22T06:12:49.329Z,15.95
2023-01-22T06:15:18.132Z,17.25
2023-01-22T06:17:53.484Z,14.85
2023-01-22T06:20:21.958Z,16.55
2023-01-22T06:22:51.901Z,15.20
2023-01-22T06:25:20.298Z,17.00
2023-01-22T06:28:02.992Z,18.33
2023-01-22T06:30:32.369Z,18.75
2023-01-22T06:33:04.863Z,18.20
2023-01-22T06:35:33.911Z,15.63
2023-01-22T06:38:02.578Z,17.40
2023-01-22T06:40:34.130Z,16.75
2023-01-22T06:43:04.926Z,16.60
2023-01-22T06:45:33.896Z,16.60
2023-01-22T06:48:10.952Z,16.90
2023-01-22T06:50:39.749Z,19.52
2023-01-22T06:53:08.359Z,19.05
2023-01-22T06:55:37.050Z,17.08
2023-01-22T06:58:05.641Z,16.55
2023-01-22T07:00:34.046Z,16.80
2023-01-22T07:03:06.758Z,15.63
2023-01-22T07:05:39.306Z,18.30
2023-01-22T07:08:07.737Z,15.35
2023-01-22T07:10:36.133Z,17.10
2023-01-22T07:13:04.586Z,18.08
2023-01-22T07:15:33.312Z,14.35
2023-01-22T07:18:01.771Z,15.48
2023-01-22T07:20:30.155Z,15.10
2023-01-22T07:23:00.425Z,13.27
2023-01-22T07:25:28.971Z,14.57
2023-01-22T07:28:00.779Z,15.38
2023-01-22T07:30:29.948Z,18.67
2023-01-22T07:33:00.147Z,17.38
2023-01-22T07:35:31.816Z,15.55
2023-01-22T07:38:02.055Z,16.20
2023-01-22T07:40:30.403Z,15.23
2023-01-22T07:42:58.737Z,15.93
2023-01-22T07:45:27.308Z,16.77
2023-01-22T07:47:57.445Z,13.27
2023-01-22T07:50:27.586Z,16.40
2023-01-22T07:52:56.652Z,14.52
2023-01-22T07:55:26.363Z,13.63
2023-01-22T07:57:59.030Z,16.17
2023-01-22T08:00:27.717Z,14.20
2023-01-22T08:02:56.088Z,14.73
2023-01-22T08:05:24.432Z,14.48
2023-01-22T08:07:52.900Z,14.18
2023-01-22T08:10:21.449Z,16.77
2023-01-22T08:12:51.183Z,16.05
2023-01-22T08:15:19.748Z,14.57
2023-01-22T08:17:50.192Z,15.75
2023-01-22T08:20:21.273Z,14.70
2023-01-22T08:22:49.994Z,12.98
2023-01-22T08:25:18.638Z,16.63
2023-01-22T08:27:46.990Z,18.48
2023-01-22T08:30:16.972Z,16.02
2023-01-22T08:32:46.446Z,17.92
2023-01-22T08:35:15.245Z,16.08
2023-01-22T08:37:44.827Z,15.63
2023-01-22T08:40:13.880Z,15.73
2023-01-22T08:42:42.219Z,15.90
2023-01-22T08:45:11.344Z,14.60
2023-01-22T08:47:41.145Z,13.57
2023-01-22T08:50:10.519Z,15.02
2023-01-22T08:52:39.086Z,15.63
2023-01-22T08:55:09.856Z,14.90
2023-01-22T08:57:38.424Z,12.02
2023-01-22T09:00:08.490Z,13.85
2023-01-22T09:02:36.827Z,13.48
2023-01-22T09:05:07.735Z,12.63
2023-01-22T09:07:36.127Z,14.43
2023-01-22T09:10:08.021Z,13.20
2023-01-22T09:12:36.591Z,12.43
2023-01-22T09:15:05.496Z,13.57
2023-01-22T09:17:34.185Z,11.85
2023-01-22T09:20:02.514Z,11.80
2023-01-22T09:22:32.257Z,12.52
2023-01-22T09:25:00.647Z,12.57
2023-01-22T09:27:29.205Z,13.23
2023-01-22T09:29:57.518Z,12.75
2023-01-22T09:32:25.854Z,10.68
2023-01-22T09:34:54.269Z,12.63
2023-01-22T09:37:22.703Z,11.13
2023-01-22T09:39:52.977Z,14.30
2023-01-22T09:42:27.015Z,14.23
2023-01-22T09:44:59.049Z,15.40
2023-01-22T09:47:33.168Z,15.93
2023-01-22T09:50:05.900Z,15.27
2023-01-22T09:52:37.687Z,14.23
2023-01-22T09:55:13.095Z,15.40
2023-01-22T09:57:45.511Z,17.05
2023-01-22T10:00:20.568Z,13.43
2023-01-22T10:02:53.672Z,14.07
2023-01-22T10:05:31.195Z,14.13
2023-01-22T10:08:05.686Z,15.30
2023-01-22T10:10:36.355Z,17.23
2023-01-22T10:13:14.473Z,15.48
2023-01-22T10:15:43.059Z,16.55
2023-01-22T10:18:25.213Z,14.70
2023-01-22T10:20:55.648Z,17.77
2023-01-22T10:23:26.595Z,15.93
2023-01-22T10:26:05.481Z,15.93
2023-01-22T10:28:33.959Z,16.75
2023-01-22T10:31:02.528Z,15.73
2023-01-22T10:33:30.990Z,15.30
2023-01-22T10:35:59.361Z,15.50
2023-01-22T10:38:29.988Z,14.13
2023-01-22T10:41:01.999Z,12.93
2023-01-22T10:43:35.648Z,13.38
2023-01-22T10:46:07.555Z,12.75
2023-01-22T10:48:36.059Z,12.55
2023-01-22T10:51:14.960Z,12.40
2023-01-22T10:53:48.521Z,14.77
2023-01-22T10:56:30.055Z,14.85
2023-01-22T10:58:59.998Z,16.00
2023-01-22T11:01:32.474Z,15.00
2023-01-22T11:04:01.248Z,14.50
2023-01-22T11:06:37.870Z,13.88
2023-01-22T11:09:13.079Z,15.20
2023-01-22T11:11:48.210Z,16.80
2023-01-22T11:14:23.400Z,14.38
2023-01-22T11:16:53.779Z,16.80
2023-01-22T11:19:36.578Z,14.05
2023-01-22T11:22:12.892Z,14.45
2023-01-22T11:24:47.251Z,12.52
2023-01-22T11:27:35.172Z,14.55
2023-01-22T11:30:19.799Z,18.88
2023-01-22T11:33:02.679Z,16.13
2023-01-22T11:35:38.191Z,17.55
2023-01-22T11:38:20.166Z,14.95
2023-01-22T11:41:04.550Z,16.77
2023-01-22T11:43:49.941Z,12.30
2023-01-22T11:46:32.847Z,15.40
2023-01-22T11:49:12.319Z,15.18
2023-01-22T11:51:51.853Z,14.43
2023-01-22T11:54:40.150Z,14.50
2023-01-22T11:57:18.043Z,16.92
2023-01-22T12:00:16.758Z,14.45
2023-01-22T12:03:15.087Z,14.77
2023-01-22T12:05:49.514Z,16.90
2023-01-22T12:08:34.429Z,17.35
2023-01-22T12:11:23.381Z,14.95
2023-01-22T12:14:11.893Z,13.98
2023-01-22T12:16:51.163Z,14.93
2023-01-22T12:19:37.681Z,16.58
2023-01-22T12:22:13.737Z,17.20
2023-01-22T12:24:47.924Z,16.33
2023-01-22T12:27:22.472Z,18.02
2023-01-22T12:29:59.762Z,18.15
2023-01-22T12:32:31.798Z,16.10
2023-01-22T12:35:05.260Z,14.57
2023-01-22T12:37:46.715Z,17.88
2023-01-22T12:40:34.417Z,16.25
2023-01-22T12:43:04.421Z,16.10
2023-01-22T12:45:42.276Z,16.15
2023-01-22T12:48:24.634Z,17.85
2023-01-22T12:50:55.184Z,17.95
2023-01-22T12:53:26.358Z,19.73
2023-01-22T12:56:03.685Z,18.02
2023-01-22T12:58:35.957Z,19.85
2023-01-22T13:01:22.650Z,17.15
2023-01-22T13:04:00.491Z,17.80
2023-01-22T13:06:34.804Z,22.40
2023-01-22T13:09:03.892Z,19.98
2023-01-22T13:11:36.968Z,20.88
2023-01-22T13:14:18.728Z,19.95
2023-01-22T13:16:53.530Z,16.65
2023-01-22T13:21:53.854Z,16.33
2023-01-22T13:24:22.782Z,15.82
2023-01-22T13:26:54.908Z,19.55
2023-01-22T13:29:27.245Z,19.60
2023-01-22T13:32:02.868Z,18.10
2023-01-22T13:34:33.247Z,18.40
2023-01-22T13:37:03.964Z,16.50
2023-01-22T13:39:40.313Z,16.27
2023-01-22T13:42:18.722Z,16.38
2023-01-22T13:44:54.200Z,18.35
2023-01-22T13:47:31.194Z,19.55
2023-01-22T13:50:04.680Z,19.92
2023-01-22T13:52:42.168Z,17.20
2023-01-22T13:55:16.533Z,18.95
2023-01-22T13:57:49.189Z,17.98
2023-01-22T14:00:39.467Z,19.08
2023-01-22T14:03:22.129Z,15.40
2023-01-22T14:05:51.938Z,19.25
2023-01-22T14:08:20.340Z,18.88
2023-01-22T14:10:58.749Z,20.58
2023-01-22T14:13:27.113Z,19.85
2023-01-22T14:15:57.312Z,19.77
2023-01-22T14:18:29.475Z,19.95
2023-01-22T14:20:59.211Z,18.83
2023-01-22T14:23:27.643Z,19.70
2023-01-22T14:25:57.625Z,19.48
2023-01-22T14:28:28.194Z,21.27
2023-01-22T14:30:56.589Z,21.83
2023-01-22T14:33:27.182Z,17.83
2023-01-22T14:35:55.583Z,16.50
2023-01-22T14:38:29.270Z,17.45
2023-01-22T14:40:57.691Z,16.17
2023-01-22T14:43:26.029Z,14.63
2023-01-22T14:45:55.061Z,14.82
2023-01-22T14:48:26.275Z,20.70
2023-01-22T14:50:57.312Z,14.32
2023-01-22T14:53:27.037Z,14.55
2023-01-22T14:56:02.930Z,19.23
2023-01-22T14:58:31.329Z,19.20
2023-01-22T15:01:01.586Z,16.20
2023-01-22T15:03:30.688Z,14.27
2023-01-22T15:05:59.072Z,13.63
2023-01-22T15:08:30.636Z,13.95
2023-01-22T15:11:00.480Z,13.95
2023-01-22T15:13:28.860Z,16.08
2023-01-22T15:15:57.183Z,13.43
2023-01-22T15:18:25.584Z,17.80
2023-01-22T15:20:57.052Z,16.50
2023-01-22T15:23:25.459Z,15.80
2023-01-22T15:25:59.924Z,14.93
2023-01-22T15:28:28.666Z,13.63
2023-01-22T15:30:57.651Z,19.45
2023-01-22T15:33:26.097Z,18.73
2023-01-22T15:35:54.394Z,20.20
2023-01-22T15:38:22.704Z,21.15
2023-01-22T15:40:51.058Z,17.77
2023-01-22T15:43:20.744Z,20.38
2023-01-22T15:45:49.180Z,20.75
2023-01-22T15:48:17.594Z,20.25
2023-01-22T15:50:45.900Z,16.00
2023-01-22T15:53:14.300Z,21.27
2023-01-22T15:55:49.725Z,16.45
2023-01-22T15:58:18.041Z,17.88
2023-01-22T16:00:47.704Z,18.95
2023-01-22T16:03:16.037Z,15.63
2023-01-22T16:05:44.375Z,18.63
2023-01-22T16:08:12.711Z,21.33
2023-01-22T16:10:41.102Z,19.58
2023-01-22T16:13:09.578Z,23.45
2023-01-22T16:15:38.015Z,19.90
2023-01-22T16:18:07.767Z,19.50
2023-01-22T16:20:36.133Z,20.90
2023-01-22T16:23:05.866Z,16.50
2023-01-22T16:25:34.817Z,17.30
2023-01-22T16:28:03.135Z,18.58
2023-01-22T16:30:31.563Z,17.52
2023-01-22T16:32:59.964Z,17.30
2023-01-22T16:35:29.703Z,18.67
2023-01-22T16:37:58.063Z,18.95
2023-01-22T16:40:26.461Z,15.60
2023-01-22T16:43:00.003Z,20.27
2023-01-22T16:45:28.414Z,21.65
2023-01-22T16:47:56.824Z,21.73
2023-01-22T16:50:25.228Z,19.88
2023-01-22T16:52:54.909Z,22.27
2023-01-22T16:55:23.853Z,19.02
2023-01-22T16:57:54.197Z,19.38
2023-01-22T17:00:23.031Z,20.90
2023-01-22T17:02:51.453Z,20.45
2023-01-22T17:05:22.907Z,19.77
2023-01-22T17:07:51.279Z,20.85
2023-01-22T17:10:21.294Z,18.08
2023-01-22T17:12:49.959Z,17.98
2023-01-22T17:15:21.552Z,18.13
2023-01-22T17:17:51.640Z,17.20
2023-01-22T17:20:20.456Z,20.23
2023-01-22T17:22:48.948Z,14.13
2023-01-22T17:25:17.409Z,24.73
2023-01-22T17:27:47.104Z,25.50
2023-01-22T17:30:16.270Z,20.15
2023-01-22T17:32:47.695Z,17.77
2023-01-22T17:35:16.426Z,23.13
2023-01-22T17:37:45.543Z,21.77
2023-01-22T17:40:14.276Z,20.65
2023-01-22T17:42:42.743Z,18.05
2023-01-22T17:45:13.037Z,15.95
2023-01-22T17:47:44.133Z,15.77
2023-01-22T17:50:13.978Z,18.08
2023-01-22T17:52:44.059Z,17.95
2023-01-22T17:55:12.420Z,17.85
2023-01-22T17:57:42.104Z,17.85
2023-01-22T18:00:13.408Z,18.33
2023-01-22T18:02:41.924Z,19.52
2023-01-22T18:05:10.942Z,18.88
2023-01-22T18:07:39.280Z,22.45
2023-01-22T18:10:11.094Z,17.65
2023-01-22T18:12:39.468Z,19.00
2023-01-22T18:15:08.634Z,15.77
2023-01-22T18:17:38.436Z,18.25
2023-01-22T18:20:09.629Z,17.13
2023-01-22T18:22:38.030Z,22.40
2023-01-22T18:25:07.267Z,18.45
2023-01-22T18:27:35.605Z,20.27
2023-01-22T18:30:03.986Z,18.98
2023-01-22T18:32:35.701Z,19.00
2023-01-22T18:35:06.511Z,17.80
2023-01-22T18:37:41.579Z,23.25
2023-01-22T18:40:15.198Z,19.30
2023-01-22T18:42:43.541Z,21.23
2023-01-22T18:45:15.430Z,22.50
2023-01-22T18:47:43.787Z,18.75
2023-01-22T18:50:16.636Z,24.92
2023-01-22T18:52:45.384Z,20.27
2023-01-22T18:55:17.621Z,20.92
2023-01-22T18:57:52.052Z,20.13
2023-01-22T19:00:21.279Z,23.17
2023-01-22T19:02:54.963Z,24.90
2023-01-22T19:05:28.748Z,23.17
2023-01-22T19:07:58.375Z,19.27
2023-01-22T19:10:30.609Z,19.33
2023-01-22T19:12:59.001Z,18.85
2023-01-22T19:15:28.081Z,18.15
2023-01-22T19:17:56.594Z,19.05
2023-01-22T19:20:26.386Z,17.98
2023-01-22T19:22:54.818Z,24.15
2023-01-22T19:25:23.227Z,23.00
2023-01-22T19:27:51.548Z,23.35
2023-01-22T19:30:20.186Z,25.05
2023-01-22T19:32:48.621Z,20.60
2023-01-22T19:35:20.224Z,20.45
2023-01-22T19:37:50.137Z,18.42
2023-01-22T19:40:19.790Z,18.23
2023-01-22T19:42:48.461Z,17.30
2023-01-22T19:45:17.351Z,19.10
2023-01-22T19:47:45.834Z,20.88
2023-01-22T19:50:14.204Z,18.17
2023-01-22T19:52:42.904Z,19.63
2023-01-22T19:55:12.805Z,18.33
2023-01-22T19:57:41.231Z,15.05
2023-01-22T20:00:10.951Z,19.65
2023-01-22T20:02:40.435Z,15.80
2023-01-22T20:05:09.381Z,25.15
2023-01-22T20:07:37.748Z,19.60
2023-01-22T20:10:07.129Z,24.38
2023-01-22T20:12:36.893Z,19.48
2023-01-22T20:15:05.993Z,18.55
2023-01-22T20:17:36.511Z,17.67
2023-01-22T20:20:05.717Z,19.35
2023-01-22T20:22:34.122Z,17.63
2023-01-22T20:25:03.790Z,19.70
2023-01-22T20:27:32.267Z,18.23
2023-01-22T20:30:02.043Z,17.08
2023-01-22T20:32:30.557Z,18.88
2023-01-22T20:34:59.164Z,17.83
2023-01-22T20:37:27.641Z,17.60
2023-01-22T20:39:56.091Z,16.90
2023-01-22T20:42:24.458Z,21.17
2023-01-22T20:44:52.934Z,16.55
2023-01-22T20:47:22.595Z,24.75
2023-01-22T20:49:50.978Z,16.73
2023-01-22T20:52:19.980Z,19.33
2023-01-22T20:55:01.003Z,17.23
2023-01-22T20:57:30.401Z,16.00
2023-01-22T20:59:58.759Z,17.25
2023-01-22T21:02:28.575Z,18.38
2023-01-22T21:04:56.930Z,21.13
2023-01-22T21:07:25.367Z,17.23
2023-01-22T21:09:53.708Z,18.20
2023-01-22T21:12:22.188Z,20.38
2023-01-22T21:14:54.397Z,18.95
2023-01-22T21:17:23.100Z,19.25
2023-01-22T21:19:55.231Z,16.23
2023-01-22T21:22:23.598Z,19.35
2023-01-22T21:24:51.964Z,18.33
2023-01-22T21:27:20.351Z,17.45
2023-01-22T21:29:51.846Z,22.45
2023-01-22T21:32:20.360Z,24.80
2023-01-22T21:34:49.230Z,23.33
2023-01-22T21:37:18.994Z,27.48
2023-01-22T21:39:47.508Z,22.27
2023-01-22T21:42:33.581Z,18.48
2023-01-22T21:45:19.118Z,17.08
2023-01-22T21:47:47.461Z,18.52
2023-01-22T21:50:16.331Z,18.85
2023-01-22T21:52:47.669Z,14.73
2023-01-22T21:55:17.538Z,16.50
2023-01-22T21:57:45.901Z,14.57
2023-01-22T22:00:16.359Z,13.45
2023-01-22T22:02:45.108Z,17.23
2023-01-22T22:05:13.516Z,16.85
2023-01-22T22:07:41.855Z,15.98
2023-01-22T22:10:14.717Z,16.38
2023-01-22T22:12:43.638Z,15.05
2023-01-22T22:15:12.334Z,15.30
2023-01-22T22:17:40.729Z,14.73
2023-01-22T22:20:11.371Z,15.10
2023-01-22T22:22:39.740Z,14.77
2023-01-22T22:25:08.739Z,14.75
2023-01-22T22:27:38.554Z,14.77
2023-01-22T22:30:08.040Z,16.10
2023-01-22T22:32:36.428Z,13.85
2023-01-22T22:35:05.222Z,13.50
2023-01-22T22:37:33.725Z,12.93
2023-01-22T22:40:02.067Z,13.32
2023-01-22T22:42:30.592Z,11.23
2023-01-22T22:45:00.252Z,12.20
2023-01-22T22:47:28.558Z,11.50
2023-01-22T22:49:56.951Z,12.50
2023-01-22T22:52:25.388Z,12.15
2023-01-22T22:54:54.059Z,14.75
2023-01-22T22:57:22.398Z,13.68
2023-01-22T22:59:50.787Z,17.63
2023-01-22T23:02:20.536Z,15.10
2023-01-22T23:04:48.956Z,13.73
2023-01-22T23:07:17.340Z,14.40
2023-01-22T23:09:46.583Z,14.20
2023-01-22T23:12:15.460Z,16.35
2023-01-22T23:14:43.909Z,16.40
2023-01-22T23:17:12.220Z,18.40
2023-01-22T23:19:42.955Z,17.23
2023-01-22T23:22:11.465Z,14.77
2023-01-22T23:24:40.326Z,15.75
2023-01-22T23:27:08.686Z,16.40
2023-01-22T23:29:37.233Z,16.50
2023-01-22T23:32:05.955Z,13.43
2023-01-22T23:34:34.426Z,14.20
2023-01-22T23:37:04.184Z,14.18
2023-01-22T23:39:32.567Z,13.73
2023-01-22T23:42:00.886Z,12.10
2023-01-22T23:44:29.187Z,14.98
2023-01-22T23:46:57.564Z,14.38
2023-01-22T23:49:25.944Z,13.70
2023-01-22T23:51:54.320Z,12.98
2023-01-22T23:54:24.128Z,12.88
2023-01-22T23:56:52.472Z,13.23
2023-01-22T23:59:23.397Z,11.23
